Aviation Digital Data Service (ADDS)

Output produced by METARs form (1657 UTC 29 May 2017)
found at http://www.aviationweather.gov/adds/metars/
 
KJST 291654Z AUTO 28011G17KT 10SM SCT034 SCT041 20/13 A2996 RMK AO2 SLP136 T02000128
KJST 291554Z AUTO 29014KT 10SM CLR 20/12 A2994 RMK AO2 SLP129 T02000117
KJST 291504Z AUTO 30011KT 10SM FEW017 18/13 A2992 RMK AO2 T01830133
KJST 291454Z AUTO 27010KT 10SM SCT017 BKN022 18/14 A2991 RMK AO2 SLP121 60000 T01830139 51004
KJST 291452Z AUTO 29009KT 10SM SCT017 SCT022 18/13 A2991 RMK AO2
KJST 291426Z AUTO 26009G18KT 10SM FEW011 SCT015 BKN023 18/14 A2991 RMK AO2 T01780144
KJST 291354Z AUTO 27009G17KT 10SM OVC010 17/14 A2990 RMK AO2 SLP120 T01670144
KJST 291317Z AUTO 26008KT 10SM FEW008 BKN014 OVC024 16/14 A2991 RMK AO2 T01610139
KJST 291254Z AUTO 25005KT 10SM FEW010 BKN026 BKN050 16/15 A2990 RMK AO2 RAB09E33 SLP119 P0000 T01610150
KJST 291212Z AUTO 24006KT 10SM -RA FEW007 BKN023 OVC035 14/14 A2989 RMK AO2 RAB09 P0000 T01440144
KJST 291154Z AUTO 22005KT 10SM FEW007 SCT031 OVC041 14/14 A2988 RMK AO2 RAB40E50 SLP112 P0000 60019 70101 T01440139 10172 20139 53017
KJST 291121Z AUTO 22008KT 10SM SCT001 BKN070 14/14 A2987 RMK AO2 T01440144
KJST 291112Z AUTO 23007KT 4SM BR BKN001 14/14 A2986 RMK AO2 T01390139
KJST 291110Z AUTO 22008KT 1 1/4SM BR BKN001 14/14 A2987 RMK AO2 T01390139
KJST 291054Z AUTO 23006KT M1/4SM FG VV002 14/14 A2985 RMK AO2 RAE00 SLP104 P0000 T01440144
KJST 291044Z AUTO 24006KT M1/4SM FG VV002 14/14 A2986 RMK AO2 RAE00 P0000 T01440144
KJST 291035Z AUTO 24006KT 1/4SM FG SCT002 SCT011 SCT016 14/14 A2986 RMK AO2 RAE00 P0000 T01440139
KJST 291032Z AUTO 25007KT 1 1/2SM BR FEW002 SCT016 SCT095 14/14 A2986 RMK AO2 RAE00 PRESRR P0000 T01440139
KJST 290954Z AUTO 00000KT 10SM -RA BKN080 OVC100 14/14 A2982 RMK AO2 SLP092 P0007 T01440139
KJST 290913Z AUTO 09003KT 7SM RA SCT042 OVC049 15/14 A2983 RMK AO2 LTG DSNT E AND SE P0004 T01500144
KJST 290854Z AUTO 32008KT 3SM VCTS RA BR FEW004 SCT038 OVC047 15/14 A2983 RMK AO2 LTG DSNT NE-S SLP094 P0012 60012 T01500144 53008
KJST 290852Z AUTO 32008KT 3SM VCTS +RA BR FEW004 SCT034 OVC047 15/14 A2982 RMK AO2 LTG DSNT NE-S P0011
KJST 290838Z AUTO 32012KT 3SM VCTS +RA BR FEW003 BKN016 OVC037 16/15 A2982 RMK AO2 LTG DSNT W P0007 T01560150
KJST 290831Z AUTO 32014G18KT 4SM VCTS RA BR FEW003 BKN014 OVC019 16/15 A2981 RMK AO2 LTG DSNT SW AND W P0003 T01560150
KJST 290809Z AUTO 00000KT 8SM -RA BKN016 OVC022 16/16 A2980 RMK AO2 LTG DSNT SW-N P0002 T01610156
KJST 290754Z AUTO 19005KT 7SM VCTS -RA OVC017 16/16 A2980 RMK AO2 LTG DSNT SW-N RAB11 SLP083 P0000 T01610161
KJST 290713Z AUTO 00000KT 7SM -RA SCT003 OVC020 16/16 A2979 RMK AO2 LTG DSNT NE RAB11 P0000 T01610161
KJST 290654Z AUTO 27008KT 3SM BR FEW003 BKN008 OVC018 17/16 A2980 RMK AO2 SLP081 T01670161
KJST 290646Z AUTO 30010KT 5SM BR FEW002 BKN007 OVC012 17/16 A2980 RMK AO2 T01670161
KJST 290615Z AUTO 22008G17KT 10SM BKN013 OVC019 17/16 A2980 RMK AO2 LTG DSNT W-N T01720161
KJST 290554Z AUTO 20011G18KT 10SM VCTS BKN017 OVC025 17/16 A2979 RMK AO2 LTG DSNT SW AND NW SLP079 60001 T01670161 10167 20156 56009
KJST 290454Z AUTO 20007KT 10SM BKN018 OVC032 17/16 A2979 RMK AO2 LTG DSNT N AND NW RAE0355 SLP080 P0000 T01670156 401830128
KJST 290409Z AUTO 18009KT 10SM BKN021 BKN037 OVC055 16/16 A2981 RMK AO2 RAE0355 P0000 T01610156
KJST 290354Z AUTO 19008KT 10SM -RA FEW005 BKN038 OVC090 16/16 A2982 RMK AO2 RAB09E18B46 SLP090 P0000 T01610156
KJST 290338Z AUTO 18010KT 10SM SCT005 BKN027 BKN065 16/16 A2982 RMK AO2 LTG DSNT N RAB09E18 P0000 T01610156
KJST 290326Z AUTO 17010KT 10SM BKN006 BKN027 OVC038 16/16 A2982 RMK AO2 LTG DSNT N RAB09E18 CIG 004V010 P0000 T01610156
KJST 290311Z AUTO 17007KT 10SM -RA SCT006 BKN016 OVC036 16/16 A2983 RMK AO2 LTG DSNT N RAB09 P0000 T01610156
KJST 290254Z AUTO 17008KT 10SM OVC018 16/16 A2983 RMK AO2 LTG DSNT N SLP094 60001 T01560156 51001
KJST 290221Z AUTO 17009KT 10SM BKN023 BKN040 OVC047 16/16 A2984 RMK AO2 LTG DSNT N T01610156
KJST 290154Z AUTO 16010KT 10SM FEW027 SCT047 BKN055 16/15 A2983 RMK AO2 LTG DSNT NW-NE SLP093 T01560150
KJST 290118Z AUTO 16009KT 10SM SCT004 OVC033 16/15 A2983 RMK AO2 LTG DSNT N AND NW T01560150
KJST 290054Z AUTO 17009KT 10SM OVC004 16/16 A2983 RMK AO2 LTG DSNT NW RAE09 SLP095 P0001 T01560156
KJST 290024Z AUTO 15008KT 5SM BR BKN004 BKN044 OVC055 16/16 A2983 RMK AO2 LTG DSNT NW RAE09 P0001 T01610156
KJST 290014Z AUTO 16008KT 9SM SCT004 BKN040 OVC060 16/16 A2983 RMK AO2 LTG DSNT W RAE09 P0001 T01610156
KJST 282359Z AUTO 14008KT 3SM RA BR FEW033 BKN042 OVC080 16/16 A2982 RMK AO2 LTG DSNT W P0001 T01610156
KJST 282354Z AUTO 12005KT 1 1/2SM RA BR FEW033 BKN040 OVC080 16/16 A2983 RMK AO2 RAB01 SLP094 P0022 60081 T01610156 10183 20161 58007
KJST 282341Z AUTO 16010KT 1 3/4SM +RA BR SCT047 BKN070 OVC095 16/16 A2983 RMK AO2 RAB01 P0008 T01610156
KJST 282337Z AUTO 17008KT 4SM RA BR FEW033 BKN070 OVC095 16/16 A2983 RMK AO2 RAB01 P0002 T01610156
KJST 282322Z AUTO 16005KT 10SM VCTS -RA FEW034 SCT075 BKN095 16/16 A2984 RMK AO2 LTG DSNT W RAB01 P0000 T01610156
KJST 282254Z AUTO 15010KT 10SM SCT055 17/16 A2983 RMK AO2 LTG DSNT SE AND W AND NW RAE16 SLP096 P0004 T01670156
KJST 282207Z AUTO 14006KT 5SM -RA BR SCT033 BKN040 OVC055 16/16 A2984 RMK AO2 LTG DSNT W P0004 T01610156
KJST 282154Z AUTO 15007KT 2 1/2SM VCTS RA BR FEW005 BKN039 OVC060 16/16 A2985 RMK AO2 VIS 1 1/4V4 LTG DSNT S TSB2055E10 SLP101 P0046 T01610156
KJST 282150Z AUTO 15008KT 1 1/4SM VCTS RA BR FEW006 BKN035 OVC055 16/16 A2985 RMK AO2 LTG DSNT E AND S TSB2055E10 P0045
KJST 282143Z AUTO 15007KT 1 3/4SM +RA BR FEW006 SCT036 OVC060 16/16 A2985 RMK AO2 LTG DSNT E AND S TSB2055E10 P0042 T01610156
KJST 282133Z AUTO 10006KT 3SM -RA BR SCT006 BKN032 OVC060 16/16 A2984 RMK AO2 LTG DSNT SE AND S TSB2055E10 P0035 T01610156
KJST 282121Z AUTO 12008KT 1SM +RA BR SCT007 BKN033 OVC060 16/16 A2983 RMK AO2 LTG DSNT SE AND S AND NW TSB2055E10 P0034 T01610156
KJST 282117Z AUTO 13007KT 3/4SM +RA BR BKN007 BKN033 OVC060 16/16 A2984 RMK AO2 LTG DSNT SE AND S AND NW TSB2055E10 P0028 T01610156
KJST 282110Z AUTO 12009G14KT 1SM +RA BR BKN007 OVC020 16/16 A2983 RMK AO2 LTG DSNT SE-SW TSB2055E10 P0021 T01610156
KJST 282101Z AUTO 15004KT 2 1/2SM -TSRA BR OVC007 16/16 A2986 RMK AO2 LTG DSNT S AND SW TSB2055 CIG 003V009 P0001 T01610161
KJST 282054Z AUTO 13005KT 2SM VCTS -RA BR BKN005 OVC009 16/16 A2984 RMK AO2 LTG DSNT ALQDS TSB07E22 CIG 003V008 SLP100 P0007 60009 T01610156 56006
KJST 282047Z AUTO 13006KT 2SM VCTS -RA BR OVC003 16/16 A2984 RMK AO2 LTG DSNT ALQDS TSB07E22 CIG 003V008 P0006 T01610156
KJST 282022Z AUTO 13005KT 2SM RA BR OVC003 16/16 A2985 RMK AO2 LTG DSNT S-NW TSB07E22 P0002 T01610156
KJST 282013Z AUTO 14009KT 3SM -TSRA BR OVC005 16/16 A2984 RMK AO2 LTG DSNT SW-N TSB07 P0001 T01610156
KJST 281954Z AUTO 14006KT 3SM VCTS -RA BR OVC007 16/16 A2984 RMK AO2 LTG DSNT SW-N RAB20 SLP100 P0002 T01610156
KJST 281940Z AUTO 14008KT 7SM VCTS -RA OVC007 17/16 A2984 RMK AO2 LTG DSNT SW-NW RAB20 P0001 T01670156
KJST 281854Z AUTO 14006KT 10SM OVC008 18/16 A2984 RMK AO2 LTG DSNT W SLP099 T01830161
KJST 281754Z AUTO 15009KT 10SM BKN006 OVC020 17/16 A2986 RMK AO2 LTG DSNT SW RAE1659B20E33 SLP106 P0000 60000 T01720161 10178 20150 58008
KJST 281733Z AUTO 14005KT 10SM BKN006 OVC016 17/16 A2987 RMK AO2 RAE1659B20E33 P0000 T01720161
KJST 281707Z AUTO 12006KT 10SM FEW007 BKN016 OVC023 17/16 A2988 RMK AO2 RAE1659 P0000 T01720161
KJST 281654Z AUTO 13007KT 9SM -RA SCT007 BKN014 OVC022 17/16 A2989 RMK AO2 RAB23 SLP114 P0000 T01720161
KJST 281646Z AUTO 14006KT 7SM -RA FEW007 BKN014 OVC045 17/16 A2989 RMK AO2 RAB23 P0000 T01720161
KJST 281638Z AUTO 14007KT 8SM -RA FEW005 OVC015 17/16 A2989 RMK AO2 RAB23 P0000 T01720156
KJST 281554Z AUTO 14006KT 3SM BR OVC003 17/16 A2989 RMK AO2 SLP113 T01720161
KJST 281547Z AUTO 14008KT 2SM BR OVC003 16/16 A2989 RMK AO2 T01610156
KJST 281454Z AUTO 16007KT 7SM OVC005 17/16 A2989 RMK AO2 SLP112 T01670156 53004
KJST 281354Z AUTO 15006KT 7SM OVC005 17/16 A2987 RMK AO2 SLP110 T01670156
KJST 281254Z AUTO 15008KT 8SM OVC006 17/16 A2987 RMK AO2 SLP107 T01670161
KJST 281224Z AUTO 15006KT 8SM BKN008 BKN018 16/16 A2986 RMK AO2 T01560156
KJST 281204Z AUTO 18004KT 7SM SCT003 16/15 A2987 RMK AO2 T01560150
KJST 281154Z AUTO 17003KT 6SM BR BKN003 15/15 A2987 RMK AO2 SLP109 70002 T01500150 10150 20128 58004
KJST 281120Z AUTO 00000KT 4SM BR BKN003 BKN020 14/14 A2987 RMK AO2 T01440144
KJST 281111Z AUTO 12004KT 4SM BR FEW003 SCT020 14/14 A2987 RMK AO2 T01440144
KJST 281101Z AUTO 17003KT 3SM BR FEW004 BKN020 14/14 A2988 RMK AO2 T01440144
KJST 281054Z AUTO 19003KT 2 1/2SM BR FEW003 SCT018 14/14 A2988 RMK AO2 SLP112 T01440144
KJST 281048Z AUTO 00000KT 2SM BR FEW003 SCT018 14/14 A2988 RMK AO2
KJST 281045Z AUTO 00000KT 3/4SM BR FEW002 SCT018 14/14 A2988 RMK AO2 T01440139
KJST 281035Z AUTO 00000KT 1/2SM FG BKN002 BKN017 14/14 A2989 RMK AO2 T01390139
KJST 281014Z AUTO 15003KT 1 3/4SM BR OVC002 14/14 A2988 RMK AO2 T01390139
KJST 280954Z AUTO 00000KT 1/2SM FG VV002 14/14 A2988 RMK AO2 SLP110 T01440144
KJST 280854Z AUTO 20004KT 1/2SM FG VV002 14/14 A2989 RMK AO2 SLP114 T01390139 55000
KJST 280823Z AUTO 20003KT 1/2SM FG VV002 13/13 A2989 RMK AO2 T01280128
KJST 280818Z AUTO 22003KT 1 1/4SM BR OVC003 14/13 A2989 RMK AO2 T01390133
KJST 280754Z AUTO 20003KT 1/2SM FG VV003 13/13 A2988 RMK AO2 SLP114 T01330133
KJST 280750Z AUTO 21003KT 1/4SM FG VV002 13/13 A2988 RMK AO2
KJST 280743Z AUTO 21004KT 1/2SM FG VV002 13/13 A2988 RMK AO2 T01280128
KJST 280736Z AUTO 00000KT 1/2SM FG VV003 13/13 A2988 RMK AO2 T01280128
KJST 280721Z AUTO 11003KT 1 1/4SM BR CLR 13/13 A2988 RMK AO2 T01330128
KJST 280706Z AUTO 08003KT 2SM BR CLR 13/13 A2988 RMK AO2 T01330128
KJST 280654Z AUTO 13003KT 3/4SM BR CLR 13/13 A2989 RMK AO2 SLP116 T01330128
KJST 280641Z AUTO 00000KT 1/2SM FG CLR 13/13 A2989 RMK AO2 T01280128
KJST 280633Z AUTO 00000KT 1SM BR VV003 13/13 A2990 RMK AO2 T01280128
KJST 280554Z AUTO 00000KT 5SM BR CLR 14/13 A2990 RMK AO2 SLP119 T01390133 10172 20139 58013